EGEO/OBN METAR and TAF weather

Enter ICAO airport designator
Station Type Date Time Source
EGEO METAR 2022/06/28 07:50 UTC NOAA

EGEO 280750Z 15010KT 120V180 9000 -DZ FEW018 SCT036 13/11 Q1006


Station Type Date Time Source
EGEO Decoded METAR 2022/06/28 07:50 UTC NOAA

Station name not available
Jun 28, 2022 - 03:50 AM EDT / 2022.06.28 0750 UTC
Wind: from the SSE (150 degrees) at 12 MPH (10 KT) (direction variable):0
Visibility: 5 mile(s):0
Sky conditions: partly cloudy
Weather: light drizzle
Temperature: 55 F (13 C)
Dew Point: 51 F (11 C)
Relative Humidity: 87%
Pressure (altimeter): 29.71 in. Hg (1006 hPa)
ob: EGEO 280750Z 15010KT 120V180 9000 -DZ FEW018 SCT036 13/11 Q1006
cycle: 8

Station Type Date Time Source
EGEO TAF UTC NOAA

Error!

Example: see airport list